^^
Your Local Weather - Clay, NY Station Historical Data
Daily Summary for February 7, 2018 Units:  Metric    English   Both
« Previous Day
Next Day »
Daily Weekly Monthly Yearly Custom
  High: Low: Average:
Temperature: -4.7 °C -14.5 °C -7.9 °C
Dew Point: -5.9 °C -16.6 °C -9.7 °C
Humidity: 91% 79% 88%
Wind Speed: 9.7km/h 0km/h 2.7km/h
Wind Gust: 17.7km/h - -
Wind- - SSE
Pressure: 1032.4 hPa 1014.4 hPa -
Precipitation: 0 mm    
Historical Graphs
 
 
Tabular Data for February 7, 2018
Time Temperature Dew Point Pressure Wind Wind Speed Wind Gust Humidity Rainfall Rate (Hourly) solar
00:04 -12.8 °C -15.1 °C 1032.4 hPa Calm     83% 0 mm 0 W/m2
00:10 -13 °C -15.3 °C 1032.4 hPa Calm     83% 0 mm 0 W/m2
00:16 -13.1 °C -15.3 °C 1032.4 hPa Calm     83% 0 mm 0 W/m2
00:22 -13.1 °C -15.4 °C 1032.4 hPa Calm     83% 0 mm 0 W/m2
00:28 -13.2 °C -15.3 °C 1032.4 hPa Calm     84% 0 mm 0 W/m2
00:34 -13.3 °C -15.4 °C 1032.4 hPa Calm     84% 0 mm 0 W/m2
00:40 -13.4 °C -15.6 °C 1032.4 hPa Calm     84% 0 mm 0 W/m2
00:46 -13.6 °C -15.7 °C 1032.4 hPa Calm     84% 0 mm 0 W/m2
00:52 -13.8 °C -15.9 °C 1032.4 hPa Calm     84% 0 mm 0 W/m2
00:58 -13.9 °C -16.1 °C 1032.1 hPa Calm     84% 0 mm 0 W/m2
01:04 -14 °C -16.1 °C 1031.7 hPa Calm     84% 0 mm 0 W/m2
01:10 -14.1 °C -16.2 °C 1031.7 hPa Calm     84% 0 mm 0 W/m2
01:16 -14.3 °C -16.4 °C 1031.7 hPa Calm     84% 0 mm 0 W/m2
01:22 -14.5 °C -16.6 °C 1031.7 hPa Calm     84% 0 mm 0 W/m2
01:28 -14.4 °C -16.6 °C 1031.4 hPa Calm     84% 0 mm 0 W/m2
01:34 -14.2 °C -16.2 °C 1031.4 hPa Calm     85% 0 mm 0 W/m2
01:40 -13.9 °C -15.9 °C 1031.4 hPa Calm     85% 0 mm 0 W/m2
01:46 -13.6 °C -15.4 °C 1031 hPa Calm     86% 0 mm 0 W/m2
01:52 -13.3 °C -15.1 °C 1031 hPa Calm     86% 0 mm 0 W/m2
01:58 -13.2 °C -15 °C 1031 hPa Calm     86% 0 mm 0 W/m2
02:04 -13.1 °C -14.9 °C 1030.7 hPa Calm     86% 0 mm 0 W/m2
02:10 -12.9 °C -14.7 °C 1030.7 hPa Calm     86% 0 mm 0 W/m2
02:16 -12.7 °C -14.5 °C 1030.7 hPa Calm     86% 0 mm 0 W/m2
02:22 -12.4 °C -14.2 °C 1030.7 hPa Calm     86% 0 mm 0 W/m2
02:28 -12.2 °C -14.1 °C 1030.7 hPa Calm     86% 0 mm 0 W/m2
02:34 -12.2 °C -14.1 °C 1030.7 hPa Calm   1.6 km/h 86% 0 mm 0 W/m2
02:40 -12.2 °C -14.1 °C 1030.4 hPa Calm     86% 0 mm 0 W/m2
02:46 -12.1 °C -14 °C 1030.7 hPa Calm     86% 0 mm 0 W/m2
02:52 -11.9 °C -13.8 °C 1030.4 hPa Calm     86% 0 mm 0 W/m2
02:58 -11.7 °C -13.6 °C 1030.4 hPa Calm     86% 0 mm 0 W/m2
03:04 -11.4 °C -13.3 °C 1030.4 hPa Calm     86% 0 mm 0 W/m2
03:10 -11.3 °C -13.2 °C 1030.4 hPa Calm     86% 0 mm 0 W/m2
03:16 -11.2 °C -13.1 °C 1030.4 hPa Calm   1.6 km/h 86% 0 mm 0 W/m2
03:22 -11 °C -12.9 °C 1030.4 hPa Calm     86% 0 mm 0 W/m2
03:28 -10.9 °C -12.8 °C 1030.4 hPa Calm   1.6 km/h 86% 0 mm 0 W/m2
03:34 -10.7 °C -12.8 °C 1030.4 hPa Calm     85% 0 mm 0 W/m2
03:40 -10.6 °C -12.6 °C 1030.4 hPa Calm     85% 0 mm 0 W/m2
03:46 -10.5 °C -12.6 °C 1030.4 hPa Calm     85% 0 mm 0 W/m2
03:52 -10.4 °C -12.5 °C 1030.4 hPa Calm     85% 0 mm 0 W/m2
03:58 -10.3 °C -12.4 °C 1030.4 hPa Calm     85% 0 mm 0 W/m2
04:04 -10.2 °C -12.3 °C 1029.7 hPa Calm   1.6 km/h 85% 0 mm 0 W/m2
04:10 -10.1 °C -12.2 °C 1029.7 hPa Calm   1.6 km/h 85% 0 mm 0 W/m2
04:16 -10.1 °C -12.2 °C 1029.7 hPa Calm   1.6 km/h 84% 0 mm 0 W/m2
04:22 -9.9 °C -12.1 °C 1030 hPa Calm   1.6 km/h 84% 0 mm 0 W/m2
04:28 -9.9 °C -12.2 °C 1030 hPa West 1.6 km/h 1.6 km/h 83% 0 mm 0 W/m2
04:34 -9.8 °C -12.2 °C 1030 hPa Calm   1.6 km/h 83% 0 mm 0 W/m2
04:40 -9.8 °C -12.3 °C 1029.7 hPa Calm     82% 0 mm 0 W/m2
04:46 -9.8 °C -12.3 °C 1029.7 hPa Calm     82% 0 mm 0 W/m2
04:52 -9.8 °C -12.3 °C 1029.7 hPa Calm     82% 0 mm 0 W/m2
04:58 -9.8 °C -12.4 °C 1029.7 hPa Calm   1.6 km/h 81% 0 mm 0 W/m2
05:04 -9.8 °C -12.4 °C 1029.3 hPa West 1.6 km/h 1.6 km/h 81% 0 mm 0 W/m2
05:10 -9.7 °C -12.4 °C 1029.3 hPa West 1.6 km/h 1.6 km/h 81% 0 mm 0 W/m2
05:16 -9.7 °C -12.4 °C 1029 hPa West 1.6 km/h 4.8 km/h 81% 0 mm 0 W/m2
05:22 -9.7 °C -12.4 °C 1029 hPa West 1.6 km/h 1.6 km/h 81% 0 mm 0 W/m2
05:28 -9.7 °C -12.4 °C 1028.7 hPa ENE 1.6 km/h 6.4 km/h 81% 0 mm 0 W/m2
05:34 -9.7 °C -12.5 °C 1028.7 hPa ENE 3.2 km/h 3.2 km/h 80% 0 mm 0 W/m2
05:40 -9.7 °C -12.4 °C 1028.7 hPa ENE 3.2 km/h 3.2 km/h 80% 0 mm 0 W/m2
05:46 -9.6 °C -12.4 °C 1028.7 hPa ENE 1.6 km/h 3.2 km/h 80% 0 mm 0 W/m2
05:52 -9.6 °C -12.4 °C 1028.7 hPa ENE 1.6 km/h 6.4 km/h 80% 0 mm 0 W/m2
05:58 -9.6 °C -12.4 °C 1028.3 hPa ENE 1.6 km/h 6.4 km/h 80% 0 mm 0 W/m2
06:04 -9.6 °C -12.4 °C 1028 hPa ENE 1.6 km/h 3.2 km/h 80% 0 mm 0 W/m2
06:10 -9.6 °C -12.4 °C 1028 hPa ENE 3.2 km/h 3.2 km/h 80% 0 mm 0 W/m2
06:16 -9.6 °C -12.4 °C 1027.7 hPa ENE 1.6 km/h 3.2 km/h 80% 0 mm 0 W/m2
06:22 -9.6 °C -12.3 °C 1027 hPa ENE 1.6 km/h 3.2 km/h 81% 0 mm 0 W/m2
06:28 -9.7 °C -12.3 °C 1027 hPa East 3.2 km/h 9.7 km/h 81% 0 mm 0 W/m2
06:34 -9.7 °C -12.4 °C 1027.3 hPa ENE 3.2 km/h 4.8 km/h 81% 0 mm 0 W/m2
06:40 -9.7 °C -12.4 °C 1027 hPa ENE 1.6 km/h 8 km/h 81% 0 mm 0 W/m2
06:46 -9.7 °C -12.3 °C 1027 hPa ENE 1.6 km/h 8 km/h 81% 0 mm 0 W/m2
06:52 -9.6 °C -12.2 °C 1027 hPa ENE 1.6 km/h 4.8 km/h 81% 0 mm 0 W/m2
06:58 -9.4 °C -12.1 °C 1026.6 hPa East 1.6 km/h 4.8 km/h 81% 0 mm 0 W/m2
07:04 -9.3 °C -12 °C 1026.3 hPa East 3.2 km/h 4.8 km/h 81% 0 mm 0 W/m2
07:10 -9.3 °C -12 °C 1026.3 hPa East 1.6 km/h 8 km/h 81% 0 mm 0 W/m2
07:16 -9.2 °C -11.9 °C 1026.6 hPa ENE 3.2 km/h 8 km/h 81% 0 mm 0 W/m2
07:22 -9.1 °C -11.8 °C 1026.6 hPa East 3.2 km/h 3.2 km/h 81% 0 mm 0 W/m2
07:28 -9.1 °C -11.9 °C 1026 hPa ENE 3.2 km/h 8 km/h 80% 0 mm 0 W/m2
07:34 -8.9 °C -11.8 °C 1025.6 hPa ENE 4.8 km/h 4.8 km/h 80% 0 mm 5 W/m2
07:40 -8.9 °C -11.7 °C 1025.3 hPa ENE 4.8 km/h 4.8 km/h 80% 0 mm 7 W/m2
07:46 -8.8 °C -11.7 °C 1024.9 hPa ENE 3.2 km/h 4.8 km/h 80% 0 mm 9 W/m2
07:52 -8.7 °C -11.6 °C 1024.6 hPa ENE 3.2 km/h 3.2 km/h 80% 0 mm 11 W/m2
07:58 -8.7 °C -11.5 °C 1024.9 hPa East 3.2 km/h 4.8 km/h 80% 0 mm 11 W/m2
08:04 -8.5 °C -11.3 °C 1024.9 hPa NE 3.2 km/h 4.8 km/h 80% 0 mm 12 W/m2
08:10 -8.4 °C -11.2 °C 1024.9 hPa NE 1.6 km/h 1.6 km/h 80% 0 mm 16 W/m2
08:16 -8.3 °C -11.3 °C 1024.9 hPa ENE 1.6 km/h 3.2 km/h 79% 0 mm 16 W/m2
08:22 -8.2 °C -11.2 °C 1024.9 hPa ENE 1.6 km/h 3.2 km/h 79% 0 mm 18 W/m2
08:28 -8.2 °C -11.1 °C 1025.3 hPa NE 3.2 km/h 3.2 km/h 80% 0 mm 18 W/m2
08:34 -8.3 °C -11.1 °C 1024.9 hPa ENE 3.2 km/h 4.8 km/h 80% 0 mm 18 W/m2
08:40 -8.4 °C -10.9 °C 1024.9 hPa ENE 3.2 km/h 3.2 km/h 82% 0 mm 21 W/m2
08:46 -8.4 °C -10.8 °C 1024.9 hPa ENE 3.2 km/h 4.8 km/h 83% 0 mm 21 W/m2
08:52 -8.4 °C -10.6 °C 1024.9 hPa East 3.2 km/h 3.2 km/h 84% 0 mm 28 W/m2
08:58 -8.3 °C -10.4 °C 1024.6 hPa ENE 3.2 km/h 6.4 km/h 85% 0 mm 37 W/m2
09:04 -8.2 °C -10.2 °C 1024.3 hPa ENE 4.8 km/h 4.8 km/h 86% 0 mm 39 W/m2
09:10 -8.1 °C -10.1 °C 1023.9 hPa East 4.8 km/h 4.8 km/h 86% 0 mm 39 W/m2
09:16 -8 °C -9.8 °C 1023.6 hPa ENE 4.8 km/h 6.4 km/h 87% 0 mm 46 W/m2
09:22 -7.9 °C -9.7 °C 1023.6 hPa East 6.4 km/h 12.9 km/h 87% 0 mm 47 W/m2
09:28 -7.8 °C -9.6 °C 1023.6 hPa ESE 6.4 km/h 12.9 km/h 87% 0 mm 46 W/m2
09:34 -7.7 °C -9.3 °C 1023.2 hPa East 4.8 km/h 6.4 km/h 88% 0 mm 46 W/m2
09:40 -7.6 °C -9.2 °C 1022.9 hPa SE 6.4 km/h 6.4 km/h 88% 0 mm 46 W/m2
09:46 -7.5 °C -9.2 °C 1022.9 hPa East 6.4 km/h 6.4 km/h 88% 0 mm 47 W/m2
09:52 -7.4 °C -9.1 °C 1022.6 hPa East 6.4 km/h 8 km/h 88% 0 mm 51 W/m2
09:58 -7.4 °C -9.1 °C 1022.2 hPa East 4.8 km/h 14.5 km/h 88% 0 mm 56 W/m2
10:04 -7.3 °C -9 °C 1021.9 hPa East 6.4 km/h 16.1 km/h 88% 0 mm 60 W/m2
10:10 -7.3 °C -9 °C 1021.9 hPa ENE 8 km/h 8 km/h 88% 0 mm 58 W/m2
10:16 -7.3 °C -8.9 °C 1021.9 hPa ENE 8 km/h 14.5 km/h 88% 0 mm 58 W/m2
10:22 -7.2 °C -8.7 °C 1021.6 hPa ENE 6.4 km/h 8 km/h 89% 0 mm 60 W/m2
10:28 -7.3 °C -8.8 °C 1021.2 hPa ENE 4.8 km/h 12.9 km/h 89% 0 mm 53 W/m2
10:34 -7.3 °C -8.8 °C 1021.2 hPa ENE 6.4 km/h 8 km/h 89% 0 mm 51 W/m2
10:40 -7.3 °C -8.8 °C 1020.9 hPa ENE 8 km/h 8 km/h 89% 0 mm 46 W/m2
10:46 -7.3 °C -8.8 °C 1020.5 hPa NNE 6.4 km/h 14.5 km/h 89% 0 mm 42 W/m2
10:52 -7.3 °C -8.8 °C 1020.2 hPa ENE 6.4 km/h 11.3 km/h 89% 0 mm 46 W/m2
10:58 -7.3 °C -8.8 °C 1019.9 hPa East 6.4 km/h 12.9 km/h 89% 0 mm 46 W/m2
11:04 -7.3 °C -8.8 °C 1019.5 hPa ESE 8 km/h 11.3 km/h 89% 0 mm 44 W/m2
11:10 -7.3 °C -8.8 °C 1019.2 hPa NE 9.7 km/h 12.9 km/h 89% 0 mm 49 W/m2
11:16 -7.3 °C -8.8 °C 1019.2 hPa East 8 km/h 12.9 km/h 89% 0 mm 49 W/m2
11:22 -7.2 °C -8.7 °C 1019.2 hPa ENE 8 km/h 8 km/h 89% 0 mm 58 W/m2
11:28 -7.2 °C -8.6 °C 1018.8 hPa ESE 9.7 km/h 16.1 km/h 90% 0 mm 58 W/m2
11:34 -7.2 °C -8.6 °C 1018.8 hPa East 9.7 km/h 12.9 km/h 90% 0 mm 63 W/m2
11:40 -7.1 °C -8.5 °C 1018.5 hPa ENE 8 km/h 12.9 km/h 90% 0 mm 70 W/m2
11:46 -7.1 °C -8.5 °C 1018.2 hPa ENE 9.7 km/h 14.5 km/h 90% 0 mm 56 W/m2
11:52 -7.1 °C -8.4 °C 1018.2 hPa NE 8 km/h 9.7 km/h 90% 0 mm 62 W/m2
11:58 -7.1 °C -8.4 °C 1018.2 hPa ENE 8 km/h 9.7 km/h 90% 0 mm 72 W/m2
12:04 -7.1 °C -8.4 °C 1017.8 hPa NE 8 km/h 11.3 km/h 90% 0 mm 70 W/m2
12:10 -7 °C -8.4 °C 1017.8 hPa NE 8 km/h 8 km/h 90% 0 mm 69 W/m2
12:16 -7 °C -8.4 °C 1017.5 hPa ENE 8 km/h 17.7 km/h 90% 0 mm 70 W/m2
12:22 -7 °C -8.4 °C 1017.5 hPa ENE 8 km/h 12.9 km/h 90% 0 mm 76 W/m2
12:28 -7 °C -8.4 °C 1017.2 hPa East 9.7 km/h 14.5 km/h 90% 0 mm 74 W/m2
12:34 -6.9 °C -8.3 °C 1017.2 hPa ENE 8 km/h 11.3 km/h 90% 0 mm 65 W/m2
12:40 -6.9 °C -8.3 °C 1017.2 hPa East 4.8 km/h 4.8 km/h 90% 0 mm 56 W/m2
12:46 -6.9 °C -8.3 °C 1017.2 hPa SE 4.8 km/h 9.7 km/h 90% 0 mm 62 W/m2
12:52 -6.9 °C -8.3 °C 1016.8 hPa ENE 8 km/h 8 km/h 90% 0 mm 65 W/m2
12:58 -6.9 °C -8.3 °C 1016.5 hPa ENE 6.4 km/h 8 km/h 90% 0 mm 70 W/m2
13:04 -6.8 °C -8.2 °C 1016.1 hPa ESE 6.4 km/h 6.4 km/h 90% 0 mm 74 W/m2
13:10 -6.8 °C -8.2 °C 1016.1 hPa East 6.4 km/h 8 km/h 90% 0 mm 65 W/m2
13:16 -6.8 °C -8.2 °C 1016.1 hPa East 6.4 km/h 14.5 km/h 90% 0 mm 65 W/m2
13:22 -6.7 °C -8.1 °C 1016.1 hPa ENE 6.4 km/h 11.3 km/h 90% 0 mm 65 W/m2
13:28 -6.7 °C -8.1 °C 1016.1 hPa ESE 6.4 km/h 11.3 km/h 90% 0 mm 60 W/m2
13:34 -6.7 °C -8.1 °C 1015.8 hPa ENE 4.8 km/h 6.4 km/h 90% 0 mm 62 W/m2
13:40 -6.6 °C -8 °C 1015.5 hPa SE 4.8 km/h 4.8 km/h 90% 0 mm 76 W/m2
13:46 -6.6 °C -8 °C 1015.1 hPa ENE 6.4 km/h 6.4 km/h 90% 0 mm 84 W/m2
13:52 -6.6 °C -7.8 °C 1015.1 hPa East 6.4 km/h 11.3 km/h 91% 0 mm 70 W/m2
13:58 -6.6 °C -7.8 °C 1015.1 hPa East 6.4 km/h 11.3 km/h 91% 0 mm 58 W/m2
14:04 -6.6 °C -7.8 °C 1015.1 hPa East 6.4 km/h 6.4 km/h 91% 0 mm 51 W/m2
14:10 -6.6 °C -7.8 °C 1015.1 hPa East 4.8 km/h 4.8 km/h 91% 0 mm 53 W/m2
14:16 -6.5 °C -7.7 °C 1014.8 hPa ENE 4.8 km/h 11.3 km/h 91% 0 mm 62 W/m2
14:22 -6.5 °C -7.7 °C 1014.4 hPa ESE 6.4 km/h 8 km/h 91% 0 mm 74 W/m2
14:28 -6.4 °C -7.7 °C 1014.8 hPa SE 6.4 km/h 8 km/h 91% 0 mm 67 W/m2
14:34 -6.4 °C -7.6 °C 1015.1 hPa East 4.8 km/h 4.8 km/h 91% 0 mm 56 W/m2
14:40 -6.3 °C -7.6 °C 1014.4 hPa SE 3.2 km/h 3.2 km/h 91% 0 mm 56 W/m2
14:46 -6.3 °C -7.6 °C 1014.4 hPa ESE 3.2 km/h 6.4 km/h 91% 0 mm 58 W/m2
14:52 -6.3 °C -7.6 °C 1014.4 hPa SSE 1.6 km/h 4.8 km/h 91% 0 mm 47 W/m2
14:58 -6.3 °C -7.5 °C 1014.4 hPa East 1.6 km/h 9.7 km/h 91% 0 mm 44 W/m2
15:04 -6.3 °C -7.5 °C 1014.4 hPa SE 3.2 km/h 6.4 km/h 91% 0 mm 46 W/m2
15:10 -6.2 °C -7.4 °C 1014.4 hPa SE 1.6 km/h 3.2 km/h 91% 0 mm 46 W/m2
15:16 -6.2 °C -7.4 °C 1014.4 hPa East 1.6 km/h 3.2 km/h 91% 0 mm 44 W/m2
15:22 -6.2 °C -7.4 °C 1014.4 hPa SE 3.2 km/h 6.4 km/h 91% 0 mm 42 W/m2
15:28 -6.2 °C -7.4 °C 1014.8 hPa SE 3.2 km/h 6.4 km/h 91% 0 mm 32 W/m2
15:34 -6.1 °C -7.3 °C 1014.4 hPa East 3.2 km/h 3.2 km/h 91% 0 mm 39 W/m2
15:42 -6.1 °C -7.3 °C 1014.4 hPa East 1.6 km/h 1.6 km/h 91% 0 mm 25 W/m2
15:48 -6.1 °C -7.3 °C 1014.8 hPa SSE 3.2 km/h 3.2 km/h 91% 0 mm 30 W/m2
15:54 -6.1 °C -7.3 °C 1014.4 hPa SSE 1.6 km/h 3.2 km/h 91% 0 mm 39 W/m2
16:00 -6.1 °C -7.3 °C 1014.4 hPa SSE 3.2 km/h 3.2 km/h 91% 0 mm 39 W/m2
16:06 -6.1 °C -7.3 °C 1014.4 hPa SE 3.2 km/h 4.8 km/h 91% 0 mm 39 W/m2
16:12 -6.1 °C -7.3 °C 1014.8 hPa SE 3.2 km/h 3.2 km/h 91% 0 mm 26 W/m2
16:20 -6 °C -7.2 °C 1014.8 hPa SE 1.6 km/h 1.6 km/h 91% 0 mm 25 W/m2
16:26 -6 °C -7.2 °C 1014.4 hPa SE 1.6 km/h 1.6 km/h 91% 0 mm 63 W/m2
16:32 -5.9 °C -7.2 °C 1014.4 hPa Calm   1.6 km/h 91% 0 mm 83 W/m2
16:38 -5.8 °C -7.1 °C 1014.8 hPa Calm   3.2 km/h 91% 0 mm 70 W/m2
16:44 -5.7 °C -6.9 °C 1015.1 hPa Calm   1.6 km/h 91% 0 mm 42 W/m2
16:50 -5.7 °C -6.9 °C 1015.1 hPa Calm     91% 0 mm 18 W/m2
16:56 -5.8 °C -7.1 °C 1015.1 hPa SE 1.6 km/h 4.8 km/h 91% 0 mm 11 W/m2
17:02 -5.9 °C -7.1 °C 1015.1 hPa SE 1.6 km/h 1.6 km/h 91% 0 mm 5 W/m2
17:08 -5.9 °C -7.2 °C 1015.5 hPa Calm   1.6 km/h 91% 0 mm 5 W/m2
17:14 -5.9 °C -7.2 °C 1015.5 hPa Calm   1.6 km/h 91% 0 mm 0 W/m2
17:20 -5.9 °C -7.2 °C 1015.5 hPa Calm   1.6 km/h 91% 0 mm 0 W/m2
17:26 -5.9 °C -7.2 °C 1015.8 hPa Calm   1.6 km/h 91% 0 mm 0 W/m2
17:32 -5.9 °C -7.2 °C 1015.8 hPa Calm   1.6 km/h 91% 0 mm 0 W/m2
17:38 -6 °C -7.2 °C 1016.1 hPa Calm   3.2 km/h 91% 0 mm 0 W/m2
17:44 -6 °C -7.2 °C 1016.1 hPa SE 1.6 km/h 1.6 km/h 91% 0 mm 0 W/m2
17:50 -5.9 °C -7.2 °C 1016.1 hPa Calm     91% 0 mm 0 W/m2
17:56 -5.9 °C -7.2 °C 1016.5 hPa Calm   1.6 km/h 91% 0 mm 0 W/m2
18:02 -5.9 °C -7.2 °C 1016.5 hPa SSW 1.6 km/h 3.2 km/h 91% 0 mm 0 W/m2
18:08 -5.9 °C -7.2 °C 1016.8 hPa Calm   3.2 km/h 91% 0 mm 0 W/m2
18:14 -5.9 °C -7.2 °C 1016.8 hPa Calm     91% 0 mm 0 W/m2
18:20 -5.9 °C -7.2 °C 1016.8 hPa Calm     91% 0 mm 0 W/m2
18:26 -5.9 °C -7.2 °C 1017.2 hPa Calm   1.6 km/h 91% 0 mm 0 W/m2
18:32 -5.9 °C -7.1 °C 1017.2 hPa Calm     91% 0 mm 0 W/m2
18:38 -5.9 °C -7.1 °C 1017.5 hPa Calm     91% 0 mm 0 W/m2
18:44 -5.8 °C -7.1 °C 1017.5 hPa Calm   3.2 km/h 91% 0 mm 0 W/m2
18:50 -5.8 °C -7.1 °C 1017.8 hPa SSW 1.6 km/h 3.2 km/h 91% 0 mm 0 W/m2
18:56 -5.8 °C -7 °C 1017.8 hPa SSW 1.6 km/h 3.2 km/h 91% 0 mm 0 W/m2
19:02 -5.7 °C -6.9 °C 1017.8 hPa SSW 1.6 km/h 1.6 km/h 91% 0 mm 0 W/m2
19:08 -5.7 °C -6.9 °C 1017.8 hPa SSW 1.6 km/h 3.2 km/h 91% 0 mm 0 W/m2
19:14 -5.6 °C -6.8 °C 1018.2 hPa SSW 1.6 km/h 1.6 km/h 91% 0 mm 0 W/m2
19:20 -5.5 °C -6.7 °C 1018.2 hPa SW 1.6 km/h 1.6 km/h 91% 0 mm 0 W/m2
19:26 -5.4 °C -6.6 °C 1018.2 hPa SW 1.6 km/h 1.6 km/h 91% 0 mm 0 W/m2
19:32 -5.3 °C -6.5 °C 1018.5 hPa SW 1.6 km/h 1.6 km/h 91% 0 mm 0 W/m2
19:38 -5.2 °C -6.4 °C 1018.5 hPa SW 1.6 km/h 1.6 km/h 91% 0 mm 0 W/m2
19:44 -5.1 °C -6.3 °C 1018.5 hPa WNW 1.6 km/h 4.8 km/h 91% 0 mm 0 W/m2
19:50 -5 °C -6.2 °C 1018.8 hPa West 1.6 km/h 3.2 km/h 91% 0 mm 0 W/m2
19:56 -4.9 °C -6.2 °C 1018.8 hPa West 1.6 km/h 3.2 km/h 91% 0 mm 0 W/m2
20:02 -4.9 °C -6.1 °C 1018.8 hPa West 1.6 km/h 3.2 km/h 91% 0 mm 0 W/m2
20:08 -4.8 °C -6.1 °C 1019.2 hPa West 3.2 km/h 4.8 km/h 91% 0 mm 0 W/m2
20:14 -4.7 °C -5.9 °C 1019.2 hPa WNW 3.2 km/h 4.8 km/h 91% 0 mm 0 W/m2
20:20 -4.7 °C -5.9 °C 1019.2 hPa WNW 3.2 km/h 3.2 km/h 91% 0 mm 0 W/m2
20:26 -4.7 °C -5.9 °C 1019.2 hPa WNW 1.6 km/h 4.8 km/h 91% 0 mm 0 W/m2
20:32 -4.7 °C -5.9 °C 1019.2 hPa WNW 1.6 km/h 3.2 km/h 91% 0 mm 0 W/m2
20:38 -4.7 °C -5.9 °C 1019.5 hPa WNW 1.6 km/h 3.2 km/h 91% 0 mm 0 W/m2
20:44 -4.7 °C -5.9 °C 1019.9 hPa WNW 3.2 km/h 6.4 km/h 91% 0 mm 0 W/m2
20:50 -4.8 °C -6 °C 1019.9 hPa WNW 3.2 km/h 3.2 km/h 91% 0 mm 0 W/m2
20:56 -4.8 °C -6.1 °C 1020.2 hPa NNW 3.2 km/h 4.8 km/h 91% 0 mm 0 W/m2
21:02 -4.9 °C -6.1 °C 1020.2 hPa NNW 3.2 km/h 3.2 km/h 91% 0 mm 0 W/m2
21:08 -4.9 °C -6.1 °C 1020.2 hPa NW 3.2 km/h 4.8 km/h 91% 0 mm 0 W/m2
21:14 -4.9 °C -6.2 °C 1020.5 hPa NW 3.2 km/h 6.4 km/h 91% 0 mm 0 W/m2
21:20 -5 °C -6.2 °C 1020.9 hPa North 3.2 km/h 4.8 km/h 91% 0 mm 0 W/m2
21:26 -5.1 °C -6.3 °C 1020.9 hPa NNW 3.2 km/h 4.8 km/h 91% 0 mm 0 W/m2
21:32 -5.1 °C -6.3 °C 1020.9 hPa NNW 3.2 km/h 3.2 km/h 91% 0 mm 0 W/m2
21:38 -5.1 °C -6.3 °C 1020.9 hPa NNW 1.6 km/h 3.2 km/h 91% 0 mm 0 W/m2
21:44 -5.1 °C -6.3 °C 1020.9 hPa NNW 1.6 km/h 4.8 km/h 91% 0 mm 0 W/m2
21:50 -5.1 °C -6.3 °C 1020.9 hPa NNW 1.6 km/h 6.4 km/h 91% 0 mm 0 W/m2
21:56 -5.1 °C -6.3 °C 1021.2 hPa NW 1.6 km/h 6.4 km/h 91% 0 mm 0 W/m2
22:02 -5.1 °C -6.3 °C 1021.2 hPa WNW 4.8 km/h 6.4 km/h 91% 0 mm 0 W/m2
22:08 -5.1 °C -6.3 °C 1021.2 hPa WNW 4.8 km/h 9.7 km/h 91% 0 mm 0 W/m2
22:14 -5.1 °C -6.3 °C 1021.6 hPa WNW 4.8 km/h 4.8 km/h 91% 0 mm 0 W/m2
22:20 -5.2 °C -6.4 °C 1021.6 hPa NW 4.8 km/h 6.4 km/h 91% 0 mm 0 W/m2
22:26 -5.4 °C -6.6 °C 1021.9 hPa NW 4.8 km/h 11.3 km/h 91% 0 mm 0 W/m2
22:32 -5.6 °C -6.8 °C 1021.9 hPa NNW 3.2 km/h 4.8 km/h 91% 0 mm 0 W/m2
22:38 -5.7 °C -6.9 °C 1021.9 hPa NNW 3.2 km/h 4.8 km/h 91% 0 mm 0 W/m2
22:44 -5.9 °C -7.1 °C 1021.9 hPa NW 3.2 km/h 4.8 km/h 91% 0 mm 0 W/m2
22:50 -6 °C -7.2 °C 1021.9 hPa NW 3.2 km/h 9.7 km/h 91% 0 mm 0 W/m2
22:56 -6.2 °C -7.4 °C 1021.9 hPa North 3.2 km/h 9.7 km/h 91% 0 mm 0 W/m2
23:02 -6.3 °C -7.6 °C 1022.2 hPa NNW 3.2 km/h 4.8 km/h 91% 0 mm 0 W/m2
23:08 -6.4 °C -7.8 °C 1022.2 hPa NNW 3.2 km/h 4.8 km/h 90% 0 mm 0 W/m2
23:14 -6.6 °C -8 °C 1022.2 hPa NNW 1.6 km/h 3.2 km/h 90% 0 mm 0 W/m2
23:20 -6.7 °C -8.1 °C 1022.2 hPa NNW 1.6 km/h 1.6 km/h 90% 0 mm 0 W/m2
23:26 -6.7 °C -8.1 °C 1022.6 hPa Calm   3.2 km/h 90% 0 mm 0 W/m2
23:32 -6.7 °C -8.1 °C 1022.6 hPa Calm     90% 0 mm 0 W/m2
23:38 -6.6 °C -7.8 °C 1022.9 hPa Calm     91% 0 mm 0 W/m2
23:44 -6.5 °C -7.9 °C 1022.9 hPa NNW 1.6 km/h 1.6 km/h 90% 0 mm 0 W/m2
23:50 -6.4 °C -7.6 °C 1023.2 hPa NW 1.6 km/h 3.2 km/h 91% 0 mm 0 W/m2
23:56 -6.3 °C -7.6 °C 1023.2 hPa NW 1.6 km/h 3.2 km/h 91% 0 mm 0 W/m2
Country Meadow, Clay, NY, USA
Compliments of Weather Underground - 2 mb